createdAt,value
2018-01-06T00:01:38.674Z,82.00
2018-01-06T00:04:06.231Z,82.00
2018-01-06T00:06:33.786Z,82.00
2018-01-06T00:09:01.379Z,81.90
2018-01-06T00:11:28.935Z,82.00
2018-01-06T00:13:56.550Z,82.00
2018-01-06T00:16:24.085Z,82.00
2018-01-06T00:18:51.625Z,82.00
2018-01-06T00:21:19.214Z,82.00
2018-01-06T00:23:47.551Z,82.00
2018-01-06T00:26:15.219Z,82.00
2018-01-06T00:28:42.781Z,82.40
2018-01-06T00:31:10.370Z,82.00
2018-01-06T00:33:37.938Z,82.00
2018-01-06T00:36:06.305Z,82.00
2018-01-06T00:38:33.831Z,82.00
2018-01-06T00:41:01.370Z,82.00
2018-01-06T00:43:28.974Z,82.10
2018-01-06T00:45:56.520Z,82.50
2018-01-06T00:48:24.208Z,82.40
2018-01-06T00:50:51.768Z,82.40
2018-01-06T00:53:20.087Z,83.30
2018-01-06T00:55:47.665Z,82.60
2018-01-06T00:58:15.258Z,82.70
2018-01-06T01:00:43.630Z,82.90
2018-01-06T01:03:11.185Z,82.70
2018-01-06T01:05:38.793Z,82.90
2018-01-06T01:08:06.418Z,82.70
2018-01-06T01:10:33.969Z,82.90
2018-01-06T01:13:01.570Z,83.00
2018-01-06T01:15:29.209Z,83.10
2018-01-06T01:17:56.824Z,83.10
2018-01-06T01:20:24.393Z,83.30
2018-01-06T01:22:51.955Z,83.40
2018-01-06T01:25:19.562Z,83.50
2018-01-06T01:27:47.133Z,83.50
2018-01-06T01:30:14.681Z,83.60
2018-01-06T01:32:43.169Z,83.70
2018-01-06T01:35:10.715Z,83.60
2018-01-06T01:37:39.079Z,83.80
2018-01-06T01:40:06.624Z,83.70
2018-01-06T01:42:34.243Z,83.80
2018-01-06T01:45:01.789Z,83.90
2018-01-06T01:47:29.341Z,83.80
2018-01-06T01:49:56.924Z,83.70
2018-01-06T01:52:24.470Z,83.80
2018-01-06T01:54:52.077Z,83.90
2018-01-06T01:57:19.610Z,84.00
2018-01-06T01:59:47.141Z,84.00
2018-01-06T02:02:14.726Z,84.10
2018-01-06T02:04:42.270Z,84.10
2018-01-06T02:07:09.842Z,84.10
2018-01-06T02:09:37.361Z,84.10
2018-01-06T02:12:05.709Z,84.00
2018-01-06T02:14:33.269Z,84.00
2018-01-06T02:17:00.801Z,84.00
2018-01-06T02:19:28.383Z,84.20
2018-01-06T02:21:56.681Z,84.20
2018-01-06T02:24:24.266Z,84.20
2018-01-06T02:26:51.812Z,84.40
2018-01-06T02:29:20.185Z,84.50
2018-01-06T02:31:47.747Z,84.40
2018-01-06T02:34:16.111Z,84.40
2018-01-06T02:36:43.886Z,84.40
2018-01-06T02:39:12.186Z,84.50
2018-01-06T02:41:40.214Z,84.50
2018-01-06T02:44:09.778Z,84.50
2018-01-06T02:46:37.315Z,84.40
2018-01-06T02:49:05.653Z,84.40
2018-01-06T02:51:33.216Z,84.30
2018-01-06T02:54:01.702Z,84.30
2018-01-06T02:56:29.237Z,84.20
2018-01-06T02:58:56.780Z,84.40
2018-01-06T03:01:24.394Z,84.40
2018-01-06T03:03:52.697Z,84.40
2018-01-06T03:06:20.269Z,84.40
2018-01-06T03:08:47.834Z,84.40
2018-01-06T03:11:15.446Z,84.40
2018-01-06T03:13:42.997Z,84.40
2018-01-06T03:16:11.311Z,84.50
2018-01-06T03:18:38.873Z,84.60
2018-01-06T03:21:06.414Z,84.60
2018-01-06T03:23:34.001Z,84.60
2018-01-06T03:26:02.380Z,84.70
2018-01-06T03:28:29.922Z,84.70
2018-01-06T03:30:58.268Z,84.70
2018-01-06T03:33:27.327Z,84.70
2018-01-06T03:35:54.917Z,84.60
2018-01-06T03:38:22.990Z,84.70
2018-01-06T03:40:51.046Z,84.60
2018-01-06T03:43:18.585Z,84.60
2018-01-06T03:45:46.129Z,84.80
2018-01-06T03:48:13.712Z,84.70
2018-01-06T03:50:41.269Z,84.80
2018-01-06T03:53:10.037Z,84.60
2018-01-06T03:55:37.576Z,84.50
2018-01-06T03:58:05.141Z,84.70
2018-01-06T04:00:32.718Z,84.70
2018-01-06T04:03:00.637Z,84.80
2018-01-06T04:05:28.710Z,84.90
2018-01-06T04:07:56.385Z,85.00
2018-01-06T04:10:24.691Z,85.00
2018-01-06T04:12:52.283Z,85.00
2018-01-06T04:15:19.828Z,85.00
2018-01-06T04:17:47.407Z,85.00
2018-01-06T04:20:14.953Z,85.10
2018-01-06T04:22:42.545Z,85.10
2018-01-06T04:25:10.082Z,85.10
2018-01-06T04:27:37.620Z,85.30
2018-01-06T04:30:05.285Z,85.40
2018-01-06T04:32:32.833Z,86.00
2018-01-06T04:35:00.415Z,85.30
2018-01-06T04:37:27.946Z,85.40
2018-01-06T04:39:55.504Z,85.30
2018-01-06T04:42:23.099Z,85.10
2018-01-06T04:44:50.640Z,85.20
2018-01-06T04:47:18.241Z,85.30
2018-01-06T04:49:45.782Z,85.20
2018-01-06T04:52:13.318Z,85.10
2018-01-06T04:54:40.904Z,85.30
2018-01-06T04:57:08.439Z,85.20
2018-01-06T04:59:36.020Z,85.10
2018-01-06T05:02:03.556Z,85.00
2018-01-06T05:04:31.528Z,85.00
2018-01-06T05:06:59.074Z,85.20
2018-01-06T05:09:26.605Z,85.30
2018-01-06T05:11:54.241Z,85.50
2018-01-06T05:14:21.797Z,85.40
2018-01-06T05:16:49.745Z,85.30
2018-01-06T05:19:17.245Z,85.20
2018-01-06T05:21:44.790Z,85.50
2018-01-06T05:24:12.414Z,85.30
2018-01-06T05:26:40.764Z,85.70
2018-01-06T05:29:08.345Z,85.40
2018-01-06T05:31:35.872Z,85.50
2018-01-06T05:34:03.468Z,85.50
2018-01-06T05:36:31.033Z,85.50
2018-01-06T05:38:58.571Z,85.50
2018-01-06T05:41:26.204Z,85.30
2018-01-06T05:43:54.515Z,85.30
2018-01-06T05:46:22.108Z,85.30
2018-01-06T05:48:49.644Z,85.20
2018-01-06T05:51:17.187Z,85.20
2018-01-06T05:53:44.811Z,85.20
2018-01-06T05:56:13.190Z,85.40
2018-01-06T05:58:41.213Z,85.40
2018-01-06T06:01:08.755Z,85.40
2018-01-06T06:03:36.284Z,85.30
2018-01-06T06:06:04.668Z,85.30
2018-01-06T06:08:32.223Z,85.30
2018-01-06T06:11:00.544Z,85.50
2018-01-06T06:13:28.095Z,85.30
2018-01-06T06:15:55.699Z,85.40
2018-01-06T06:18:23.242Z,85.30
2018-01-06T06:20:50.788Z,85.40
2018-01-06T06:23:18.389Z,85.40
2018-01-06T06:25:46.708Z,85.40
2018-01-06T06:28:14.367Z,85.40
2018-01-06T06:30:41.910Z,85.40
2018-01-06T06:33:09.458Z,85.40
2018-01-06T06:35:37.817Z,85.50
2018-01-06T06:38:06.140Z,85.70
2018-01-06T06:40:33.768Z,85.50
2018-01-06T06:43:01.328Z,85.60
2018-01-06T06:45:29.801Z,85.80
2018-01-06T06:47:58.265Z,85.70
2018-01-06T06:50:25.809Z,85.70
2018-01-06T06:52:53.453Z,85.70
2018-01-06T06:55:21.789Z,85.70
2018-01-06T06:57:50.118Z,85.70
2018-01-06T07:00:17.653Z,85.60
2018-01-06T07:02:45.184Z,85.70
2018-01-06T07:05:12.778Z,85.70
2018-01-06T07:07:40.325Z,85.80
2018-01-06T07:10:08.429Z,85.60
2018-01-06T07:12:35.970Z,85.70
2018-01-06T07:15:03.493Z,85.90
2018-01-06T07:17:31.106Z,86.10
2018-01-06T07:19:58.655Z,86.10
2018-01-06T07:22:26.254Z,86.40
2018-01-06T07:24:53.798Z,86.50
2018-01-06T07:27:21.407Z,86.50
2018-01-06T07:29:48.977Z,87.10
2018-01-06T07:32:16.514Z,86.20
2018-01-06T07:34:44.110Z,86.20
2018-01-06T07:37:11.659Z,86.30
2018-01-06T07:39:39.254Z,86.20
2018-01-06T07:42:06.822Z,86.40
2018-01-06T07:44:34.366Z,86.20
2018-01-06T07:47:01.954Z,86.20
2018-01-06T07:49:29.520Z,86.10
2018-01-06T07:51:57.082Z,86.90
2018-01-06T07:54:25.427Z,86.30
2018-01-06T07:56:53.805Z,86.40
2018-01-06T07:59:21.399Z,86.30
2018-01-06T08:01:49.722Z,86.30
2018-01-06T08:04:17.274Z,86.20
2018-01-06T08:06:44.869Z,86.30
2018-01-06T08:09:12.414Z,86.30
2018-01-06T08:11:39.955Z,86.30
2018-01-06T08:14:07.572Z,86.30
2018-01-06T08:16:35.898Z,86.30
2018-01-06T08:19:03.486Z,86.30
2018-01-06T08:21:31.026Z,86.80
2018-01-06T08:23:58.591Z,86.30
2018-01-06T08:26:26.186Z,86.30
2018-01-06T08:28:54.512Z,86.30
2018-01-06T08:31:22.078Z,86.30
2018-01-06T08:33:49.657Z,86.30
2018-01-06T08:36:17.208Z,86.40
2018-01-06T08:38:44.801Z,86.20
2018-01-06T08:41:12.357Z,86.10
2018-01-06T08:43:39.897Z,86.10
2018-01-06T08:46:07.494Z,85.80
2018-01-06T08:48:35.772Z,85.90
2018-01-06T08:51:04.131Z,85.80
2018-01-06T08:53:31.678Z,85.80
2018-01-06T08:55:59.260Z,85.90
2018-01-06T08:58:27.573Z,85.80
2018-01-06T09:00:55.125Z,85.60
2018-01-06T09:03:22.706Z,85.60
2018-01-06T09:05:50.260Z,85.70
2018-01-06T09:08:18.088Z,85.50
2018-01-06T09:10:46.402Z,85.50
2018-01-06T09:13:13.970Z,85.40
2018-01-06T09:15:41.566Z,85.40
2018-01-06T09:18:09.119Z,85.50
2018-01-06T09:20:36.709Z,85.30
2018-01-06T09:23:04.270Z,85.30
2018-01-06T09:25:31.824Z,85.50
2018-01-06T09:28:00.181Z,85.20
2018-01-06T09:30:27.742Z,85.20
2018-01-06T09:32:56.130Z,85.00
2018-01-06T09:35:23.684Z,84.90
2018-01-06T09:37:52.009Z,85.10
2018-01-06T09:40:19.662Z,85.60
2018-01-06T09:42:47.210Z,84.90
2018-01-06T09:45:15.105Z,85.00
2018-01-06T09:47:42.645Z,84.90
2018-01-06T09:50:10.191Z,85.00
2018-01-06T09:52:37.810Z,85.10
2018-01-06T09:55:05.357Z,85.10
2018-01-06T09:57:32.944Z,85.00
2018-01-06T10:00:00.497Z,85.00
2018-01-06T10:02:28.104Z,85.00
2018-01-06T10:04:55.628Z,85.00
2018-01-06T10:07:23.945Z,84.90
2018-01-06T10:09:51.521Z,84.90
2018-01-06T10:12:19.130Z,84.80
2018-01-06T10:14:46.729Z,84.60
2018-01-06T10:17:14.278Z,84.70
2018-01-06T10:19:41.850Z,84.70
2018-01-06T10:22:09.457Z,84.80
2018-01-06T10:24:37.788Z,84.60
2018-01-06T10:27:05.406Z,84.90
2018-01-06T10:29:33.854Z,85.20
2018-01-06T10:32:01.394Z,85.10
2018-01-06T10:34:29.012Z,85.50
2018-01-06T10:36:57.325Z,85.50
2018-01-06T10:39:24.909Z,85.40
2018-01-06T10:41:52.467Z,85.20
2018-01-06T10:44:20.069Z,85.20
2018-01-06T10:46:48.378Z,85.20
2018-01-06T10:49:15.920Z,85.10
2018-01-06T10:51:43.540Z,84.80
2018-01-06T10:54:11.084Z,84.80
2018-01-06T10:56:38.636Z,84.70
2018-01-06T10:59:06.225Z,84.70
2018-01-06T11:01:40.117Z,84.20
2018-01-06T11:04:07.713Z,84.60
2018-01-06T11:06:35.292Z,84.40
2018-01-06T11:09:02.855Z,84.40
2018-01-06T11:11:30.412Z,84.30
2018-01-06T11:13:58.016Z,84.20
2018-01-06T11:16:25.562Z,84.40
2018-01-06T11:18:53.177Z,84.60
2018-01-06T11:21:20.752Z,84.60
2018-01-06T11:23:48.312Z,84.70
2018-01-06T11:26:15.913Z,84.70
2018-01-06T11:28:43.462Z,84.70
2018-01-06T11:31:11.006Z,84.70
2018-01-06T11:33:38.657Z,84.90
2018-01-06T11:36:06.999Z,84.80
2018-01-06T11:38:35.383Z,84.70
2018-01-06T11:41:03.704Z,84.70
2018-01-06T11:43:31.310Z,84.60
2018-01-06T11:45:59.636Z,84.50
2018-01-06T11:48:27.213Z,84.50
2018-01-06T11:50:54.817Z,83.80
2018-01-06T11:53:22.378Z,83.50
2018-01-06T11:55:50.745Z,83.50
2018-01-06T11:58:18.930Z,83.40
2018-01-06T12:00:47.246Z,83.30
2018-01-06T12:03:14.835Z,83.30
2018-01-06T12:05:42.385Z,83.40
2018-01-06T12:08:09.998Z,84.00
2018-01-06T12:10:37.571Z,83.20
2018-01-06T12:13:05.148Z,83.30
2018-01-06T12:15:32.748Z,83.10
2018-01-06T12:18:00.321Z,82.90
2018-01-06T12:20:28.687Z,83.20
2018-01-06T12:22:56.245Z,83.20
2018-01-06T12:25:24.668Z,83.20
2018-01-06T12:27:52.210Z,82.70
2018-01-06T12:30:19.764Z,83.00
2018-01-06T12:32:47.370Z,83.00
2018-01-06T12:35:15.303Z,82.90
2018-01-06T12:37:42.892Z,82.90
2018-01-06T12:40:10.458Z,82.90
2018-01-06T12:42:38.068Z,83.10
2018-01-06T12:45:05.597Z,83.00
2018-01-06T12:47:33.148Z,82.80
2018-01-06T12:50:00.761Z,82.80
2018-01-06T12:52:28.316Z,82.90
2018-01-06T12:54:55.982Z,83.20
2018-01-06T12:57:23.539Z,83.20
2018-01-06T12:59:51.099Z,83.10
2018-01-06T13:02:18.785Z,83.10
2018-01-06T13:04:46.366Z,82.90
2018-01-06T13:07:13.963Z,82.70
2018-01-06T13:09:42.325Z,82.90
2018-01-06T13:12:09.944Z,82.90
2018-01-06T13:14:37.480Z,82.80
2018-01-06T13:17:05.048Z,82.80
2018-01-06T13:19:32.634Z,82.70
2018-01-06T13:22:00.183Z,82.80
2018-01-06T13:24:27.773Z,82.70
2018-01-06T13:26:55.327Z,82.70
2018-01-06T13:29:22.893Z,82.70
2018-01-06T13:31:50.476Z,82.70
2018-01-06T13:34:18.054Z,82.70
2018-01-06T13:36:45.722Z,82.70
2018-01-06T13:39:13.357Z,82.70
2018-01-06T13:41:41.680Z,82.70
2018-01-06T13:44:09.280Z,82.70
2018-01-06T13:46:36.866Z,82.70
2018-01-06T13:49:04.491Z,82.70
2018-01-06T13:51:32.038Z,82.70
2018-01-06T13:53:59.636Z,82.70
2018-01-06T13:56:27.178Z,82.70
2018-01-06T13:58:54.727Z,82.70
2018-01-06T14:01:22.378Z,82.60
2018-01-06T14:03:49.918Z,82.60
2018-01-06T14:06:17.535Z,82.70
2018-01-06T14:08:45.076Z,83.00
2018-01-06T14:11:12.629Z,83.20
2018-01-06T14:13:40.216Z,83.40
2018-01-06T14:16:08.562Z,83.60
2018-01-06T14:18:36.219Z,83.60
2018-01-06T14:21:03.754Z,83.60
2018-01-06T14:23:31.345Z,83.50
2018-01-06T14:25:58.936Z,83.60
2018-01-06T14:28:27.282Z,83.60
2018-01-06T14:30:54.946Z,83.60
2018-01-06T14:33:22.497Z,83.50
2018-01-06T14:35:50.885Z,83.70
2018-01-06T14:38:18.436Z,83.70
2018-01-06T14:40:45.989Z,83.60
2018-01-06T14:43:13.586Z,83.70
2018-01-06T14:45:41.948Z,84.40
2018-01-06T14:48:09.571Z,84.40
2018-01-06T14:50:37.092Z,84.30
2018-01-06T14:53:05.406Z,84.50
2018-01-06T14:55:32.988Z,84.40
2018-01-06T14:58:00.533Z,84.60
2018-01-06T15:00:28.155Z,84.60
2018-01-06T15:02:55.815Z,84.80
2018-01-06T15:05:23.413Z,84.80
2018-01-06T15:07:51.142Z,84.60
2018-01-06T15:10:18.732Z,84.60
2018-01-06T15:12:46.321Z,84.70
2018-01-06T15:15:13.861Z,84.70
2018-01-06T15:17:41.473Z,84.90
2018-01-06T15:20:09.039Z,85.20
2018-01-06T15:22:37.370Z,85.40
2018-01-06T15:25:04.970Z,85.40
2018-01-06T15:27:33.290Z,85.60
2018-01-06T15:30:00.890Z,85.60
2018-01-06T15:32:28.464Z,85.90
2018-01-06T15:34:56.023Z,86.40
2018-01-06T15:37:24.902Z,87.20
2018-01-06T15:39:53.223Z,87.70
2018-01-06T15:42:23.038Z,87.10
2018-01-06T15:44:50.594Z,87.30
2018-01-06T15:47:18.151Z,87.90
2018-01-06T15:49:45.893Z,88.10
2018-01-06T15:52:16.097Z,88.20
2018-01-06T15:54:41.436Z,88.20
2018-01-06T15:57:09.041Z,88.30
2018-01-06T15:59:36.628Z,88.50
2018-01-06T16:02:04.237Z,88.70
2018-01-06T16:04:31.808Z,89.20
2018-01-06T16:06:59.444Z,89.40
2018-01-06T16:09:27.005Z,89.70
2018-01-06T16:11:54.654Z,90.00
2018-01-06T16:14:22.203Z,90.10
2018-01-06T16:16:50.901Z,90.20
2018-01-06T16:19:18.483Z,90.30
2018-01-06T16:21:46.045Z,90.20
2018-01-06T16:24:13.658Z,90.20
2018-01-06T16:26:41.983Z,90.50
2018-01-06T16:29:10.184Z,90.50
2018-01-06T16:31:37.733Z,90.80
2018-01-06T16:34:05.798Z,90.50
2018-01-06T16:36:33.345Z,90.60
2018-01-06T16:39:00.976Z,90.40
2018-01-06T16:41:28.533Z,90.60
2018-01-06T16:43:56.085Z,90.70
2018-01-06T16:46:24.925Z,90.70
2018-01-06T16:48:52.524Z,90.70
2018-01-06T16:51:20.106Z,90.80
2018-01-06T16:53:47.700Z,90.50
2018-01-06T16:56:15.309Z,90.80
2018-01-06T16:58:42.905Z,91.00
2018-01-06T17:01:11.101Z,90.90
2018-01-06T17:03:38.978Z,90.90
2018-01-06T17:06:06.533Z,90.90
2018-01-06T17:08:34.082Z,90.80
2018-01-06T17:11:01.666Z,90.50
2018-01-06T17:13:30.746Z,90.50
2018-01-06T17:15:58.352Z,90.40
2018-01-06T17:18:26.696Z,90.50
2018-01-06T17:20:54.662Z,90.40
2018-01-06T17:23:22.220Z,90.40
2018-01-06T17:25:49.787Z,90.60
2018-01-06T17:28:17.387Z,90.40
2018-01-06T17:30:44.963Z,90.40
2018-01-06T17:33:12.969Z,90.40
2018-01-06T17:35:40.525Z,90.40
2018-01-06T17:38:08.075Z,90.40
2018-01-06T17:40:35.677Z,90.40
2018-01-06T17:43:04.008Z,90.60
2018-01-06T17:45:31.586Z,90.60
2018-01-06T17:48:00.069Z,90.70
2018-01-06T17:50:28.739Z,90.40
2018-01-06T17:52:56.314Z,90.40
2018-01-06T17:55:23.861Z,90.40
2018-01-06T17:57:51.448Z,90.40
2018-01-06T18:00:19.171Z,90.80
2018-01-06T18:02:47.052Z,90.80
2018-01-06T18:05:14.629Z,90.80
2018-01-06T18:07:42.311Z,90.70
2018-01-06T18:10:09.933Z,90.80
2018-01-06T18:12:37.501Z,90.80
2018-01-06T18:15:05.400Z,90.90
2018-01-06T18:17:33.722Z,91.10
2018-01-06T18:20:01.283Z,91.10
2018-01-06T18:22:28.883Z,91.00
2018-01-06T18:24:57.952Z,90.90
2018-01-06T18:27:25.971Z,90.90
2018-01-06T18:29:53.526Z,90.90
2018-01-06T18:32:21.152Z,90.90
2018-01-06T18:34:48.993Z,91.00
2018-01-06T18:37:16.566Z,90.90
2018-01-06T18:39:44.149Z,91.00
2018-01-06T18:42:12.123Z,90.90
2018-01-06T18:44:40.318Z,91.00
2018-01-06T18:47:08.672Z,90.90
2018-01-06T18:49:36.306Z,90.90
2018-01-06T18:52:03.882Z,90.90
2018-01-06T18:54:31.946Z,91.00
2018-01-06T18:56:59.737Z,91.00
2018-01-06T18:59:28.088Z,91.10
2018-01-06T19:01:55.724Z,91.10
2018-01-06T19:04:23.285Z,91.10
2018-01-06T19:06:51.302Z,90.90
2018-01-06T19:09:19.664Z,90.80
2018-01-06T19:11:47.220Z,90.80
2018-01-06T19:14:15.289Z,90.80
2018-01-06T19:16:42.848Z,90.80
2018-01-06T19:19:10.486Z,90.80
2018-01-06T19:21:38.295Z,90.80
2018-01-06T19:24:05.852Z,90.80
2018-01-06T19:26:33.728Z,90.80
2018-01-06T19:29:01.310Z,90.70
2018-01-06T19:31:28.883Z,90.90
2018-01-06T19:33:56.923Z,91.00
2018-01-06T19:36:24.511Z,91.30
2018-01-06T19:38:52.232Z,91.20
2018-01-06T19:41:19.897Z,91.20
2018-01-06T19:43:47.470Z,91.30
2018-01-06T19:46:16.012Z,91.50
2018-01-06T19:48:43.633Z,91.50
2018-01-06T19:51:11.222Z,91.30
2018-01-06T19:53:38.842Z,91.10
2018-01-06T19:56:06.402Z,91.10
2018-01-06T19:58:34.978Z,91.40
2018-01-06T20:01:02.551Z,91.40
2018-01-06T20:03:30.103Z,91.60
2018-01-06T20:05:58.049Z,91.40
2018-01-06T20:08:25.602Z,91.50
2018-01-06T20:10:53.406Z,91.50
2018-01-06T20:13:20.982Z,91.20
2018-01-06T20:15:48.555Z,91.40
2018-01-06T20:18:16.297Z,91.50
2018-01-06T20:20:43.876Z,91.50
2018-01-06T20:23:11.866Z,91.50
2018-01-06T20:25:39.456Z,91.50
2018-01-06T20:28:07.022Z,91.70
2018-01-06T20:30:35.409Z,91.60
2018-01-06T20:33:02.978Z,91.60
2018-01-06T20:35:30.548Z,91.40
2018-01-06T20:37:58.323Z,91.50
2018-01-06T20:40:25.984Z,91.40
2018-01-06T20:42:53.559Z,91.40
2018-01-06T20:45:21.223Z,91.50
2018-01-06T20:47:48.783Z,91.50
2018-01-06T20:50:16.542Z,91.30
2018-01-06T20:52:44.858Z,91.40
2018-01-06T20:55:13.205Z,91.30
2018-01-06T20:57:42.289Z,91.40
2018-01-06T21:00:09.881Z,91.30
2018-01-06T21:02:37.463Z,91.40
2018-01-06T21:05:05.303Z,91.30
2018-01-06T21:07:34.366Z,91.40
2018-01-06T21:10:01.984Z,91.30
2018-01-06T21:12:30.377Z,91.50
2018-01-06T21:14:58.270Z,91.50
2018-01-06T21:17:26.024Z,91.40
2018-01-06T21:19:53.588Z,91.40
2018-01-06T21:22:21.915Z,91.40
2018-01-06T21:24:49.540Z,91.60
2018-01-06T21:27:17.140Z,91.70
2018-01-06T21:29:44.769Z,91.50
2018-01-06T21:32:12.344Z,91.60
2018-01-06T21:34:40.425Z,91.80
2018-01-06T21:37:08.123Z,91.80
2018-01-06T21:39:35.746Z,92.10
2018-01-06T21:42:03.341Z,92.10
2018-01-06T21:44:30.907Z,92.10
2018-01-06T21:46:58.576Z,92.10
2018-01-06T21:49:26.155Z,92.10
2018-01-06T21:51:53.739Z,92.10
2018-01-06T21:54:21.366Z,92.10
2018-01-06T21:56:48.942Z,92.10
2018-01-06T21:59:16.868Z,92.10
2018-01-06T22:01:44.496Z,92.10
2018-01-06T22:04:12.073Z,92.10
2018-01-06T22:06:39.695Z,92.00
2018-01-06T22:09:07.283Z,92.00
2018-01-06T22:11:35.343Z,92.00
2018-01-06T22:14:02.969Z,91.90
2018-01-06T22:16:30.604Z,92.00
2018-01-06T22:18:58.231Z,92.00
2018-01-06T22:21:25.790Z,92.00
2018-01-06T22:23:53.440Z,91.80
2018-01-06T22:26:21.186Z,91.90
2018-01-06T22:28:48.758Z,91.70
2018-01-06T22:31:16.375Z,91.80
2018-01-06T22:33:43.984Z,91.80
2018-01-06T22:36:11.613Z,91.70
2018-01-06T22:38:39.202Z,91.40
2018-01-06T22:41:06.781Z,91.50
2018-01-06T22:43:34.482Z,91.40
2018-01-06T22:46:02.060Z,91.30
2018-01-06T22:48:29.699Z,91.30
2018-01-06T22:50:57.293Z,91.30
2018-01-06T22:53:24.852Z,91.30
2018-01-06T22:55:53.555Z,91.20
2018-01-06T22:58:21.196Z,91.20
2018-01-06T23:00:50.429Z,91.10
2018-01-06T23:03:18.007Z,91.30
2018-01-06T23:05:46.344Z,91.40
2018-01-06T23:08:14.310Z,91.30
2018-01-06T23:10:43.100Z,91.30
2018-01-06T23:13:10.666Z,91.30
2018-01-06T23:15:38.300Z,91.00
2018-01-06T23:18:05.912Z,91.10
2018-01-06T23:20:34.182Z,91.10
2018-01-06T23:23:01.782Z,91.20
2018-01-06T23:25:29.339Z,91.20
2018-01-06T23:27:57.375Z,91.10
2018-01-06T23:30:24.981Z,91.10
2018-01-06T23:32:53.256Z,91.00
2018-01-06T23:35:20.876Z,91.00
2018-01-06T23:37:48.482Z,90.80
2018-01-06T23:40:16.534Z,91.10
2018-01-06T23:42:44.088Z,91.20
2018-01-06T23:45:11.659Z,90.80
2018-01-06T23:47:39.275Z,91.10
2018-01-06T23:50:06.839Z,91.20
2018-01-06T23:52:35.919Z,90.70
2018-01-06T23:55:03.524Z,90.70
2018-01-06T23:57:32.008Z,90.70
